sensor_id;sensor_type;location;lat;lon;timestamp;P1;durP1;ratioP1;P2;durP2;ratioP2
47259;SDS011;32999;52.412;4.890;2022-09-23T00:04:38;12.25;;;6.15;;
47259;SDS011;32999;52.412;4.890;2022-09-23T00:09:42;12.40;;;6.22;;
47259;SDS011;32999;52.412;4.890;2022-09-23T00:14:44;8.93;;;5.60;;
47259;SDS011;32999;52.412;4.890;2022-09-23T00:19:47;9.93;;;5.72;;
47259;SDS011;32999;52.412;4.890;2022-09-23T00:24:53;8.68;;;6.07;;
47259;SDS011;32999;52.412;4.890;2022-09-23T00:35:04;9.38;;;5.88;;
47259;SDS011;32999;52.412;4.890;2022-09-23T00:40:13;9.25;;;6.28;;
47259;SDS011;32999;52.412;4.890;2022-09-23T00:45:16;9.50;;;6.38;;
47259;SDS011;32999;52.412;4.890;2022-09-23T00:50:23;9.73;;;6.35;;
47259;SDS011;32999;52.412;4.890;2022-09-23T00:55:47;11.50;;;6.13;;
47259;SDS011;32999;52.412;4.890;2022-09-23T01:00:53;10.95;;;5.32;;
47259;SDS011;32999;52.412;4.890;2022-09-23T01:06:06;9.93;;;5.47;;
47259;SDS011;32999;52.412;4.890;2022-09-23T01:11:41;9.60;;;5.63;;
47259;SDS011;32999;52.412;4.890;2022-09-23T01:17:07;7.13;;;5.57;;
47259;SDS011;32999;52.412;4.890;2022-09-23T01:22:38;11.00;;;6.43;;
47259;SDS011;32999;52.412;4.890;2022-09-23T01:28:05;10.90;;;6.25;;
47259;SDS011;32999;52.412;4.890;2022-09-23T01:57:08;13.27;;;6.30;;
47259;SDS011;32999;52.412;4.890;2022-09-23T02:02:16;8.00;;;5.80;;
47259;SDS011;32999;52.412;4.890;2022-09-23T02:07:23;13.15;;;6.05;;
47259;SDS011;32999;52.412;4.890;2022-09-23T02:24:48;8.73;;;5.45;;
47259;SDS011;32999;52.412;4.890;2022-09-23T02:29:53;13.02;;;6.20;;
47259;SDS011;32999;52.412;4.890;2022-09-23T02:35:04;8.30;;;6.03;;
47259;SDS011;32999;52.412;4.890;2022-09-23T02:40:20;10.17;;;6.03;;
47259;SDS011;32999;52.412;4.890;2022-09-23T02:51:33;10.43;;;6.53;;
47259;SDS011;32999;52.412;4.890;2022-09-23T02:57:17;10.43;;;5.50;;
47259;SDS011;32999;52.412;4.890;2022-09-23T03:08:14;8.15;;;5.82;;
47259;SDS011;32999;52.412;4.890;2022-09-23T03:30:23;11.48;;;6.60;;
47259;SDS011;32999;52.412;4.890;2022-09-23T03:35:26;11.80;;;6.57;;
47259;SDS011;32999;52.412;4.890;2022-09-23T03:40:31;9.65;;;6.22;;
47259;SDS011;32999;52.412;4.890;2022-09-23T03:45:44;11.07;;;6.40;;
47259;SDS011;32999;52.412;4.890;2022-09-23T03:50:48;10.30;;;6.32;;
47259;SDS011;32999;52.412;4.890;2022-09-23T03:55:52;9.98;;;6.95;;
47259;SDS011;32999;52.412;4.890;2022-09-23T04:00:55;10.05;;;7.18;;
47259;SDS011;32999;52.412;4.890;2022-09-23T04:05:57;15.32;;;7.30;;
47259;SDS011;32999;52.412;4.890;2022-09-23T04:10:59;12.10;;;7.35;;
47259;SDS011;32999;52.412;4.890;2022-09-23T04:16:03;10.98;;;6.93;;
47259;SDS011;32999;52.412;4.890;2022-09-23T04:21:05;9.68;;;7.40;;
47259;SDS011;32999;52.412;4.890;2022-09-23T04:26:06;9.48;;;6.57;;
47259;SDS011;32999;52.412;4.890;2022-09-23T04:31:10;11.77;;;7.95;;
47259;SDS011;32999;52.412;4.890;2022-09-23T04:36:12;11.05;;;7.32;;
47259;SDS011;32999;52.412;4.890;2022-09-23T04:41:14;11.50;;;7.78;;
47259;SDS011;32999;52.412;4.890;2022-09-23T04:46:18;11.45;;;7.43;;
47259;SDS011;32999;52.412;4.890;2022-09-23T04:51:22;9.03;;;7.13;;
47259;SDS011;32999;52.412;4.890;2022-09-23T04:56:26;13.85;;;8.38;;
47259;SDS011;32999;52.412;4.890;2022-09-23T05:01:32;13.23;;;8.52;;
47259;SDS011;32999;52.412;4.890;2022-09-23T05:06:35;16.42;;;7.55;;
47259;SDS011;32999;52.412;4.890;2022-09-23T05:11:37;12.73;;;7.82;;
47259;SDS011;32999;52.412;4.890;2022-09-23T05:16:40;11.90;;;7.95;;
47259;SDS011;32999;52.412;4.890;2022-09-23T05:21:42;13.18;;;7.57;;
47259;SDS011;32999;52.412;4.890;2022-09-23T05:26:44;13.48;;;7.43;;
47259;SDS011;32999;52.412;4.890;2022-09-23T05:31:47;12.27;;;7.30;;
47259;SDS011;32999;52.412;4.890;2022-09-23T05:36:48;10.38;;;7.40;;
47259;SDS011;32999;52.412;4.890;2022-09-23T05:41:51;11.63;;;8.20;;
47259;SDS011;32999;52.412;4.890;2022-09-23T05:46:56;11.57;;;8.05;;
47259;SDS011;32999;52.412;4.890;2022-09-23T05:51:57;13.73;;;7.32;;
47259;SDS011;32999;52.412;4.890;2022-09-23T05:56:59;11.63;;;7.85;;
47259;SDS011;32999;52.412;4.890;2022-09-23T06:02:03;18.67;;;8.00;;
47259;SDS011;32999;52.412;4.890;2022-09-23T06:07:05;14.18;;;8.32;;
47259;SDS011;32999;52.412;4.890;2022-09-23T06:12:07;12.07;;;8.63;;
47259;SDS011;32999;52.412;4.890;2022-09-23T06:17:10;12.18;;;7.95;;
47259;SDS011;32999;52.412;4.890;2022-09-23T06:22:12;17.25;;;9.48;;
47259;SDS011;32999;52.412;4.890;2022-09-23T06:27:15;11.50;;;9.30;;
47259;SDS011;32999;52.412;4.890;2022-09-23T06:32:18;14.63;;;8.57;;
47259;SDS011;32999;52.412;4.890;2022-09-23T06:37:21;11.30;;;9.18;;
47259;SDS011;32999;52.412;4.890;2022-09-23T06:42:23;11.80;;;8.82;;
47259;SDS011;32999;52.412;4.890;2022-09-23T06:47:26;16.27;;;9.43;;
47259;SDS011;32999;52.412;4.890;2022-09-23T06:52:28;13.70;;;8.80;;
47259;SDS011;32999;52.412;4.890;2022-09-23T06:57:30;13.80;;;10.05;;
47259;SDS011;32999;52.412;4.890;2022-09-23T07:02:33;12.02;;;8.52;;
47259;SDS011;32999;52.412;4.890;2022-09-23T07:07:35;14.00;;;9.05;;
47259;SDS011;32999;52.412;4.890;2022-09-23T07:12:37;15.13;;;9.02;;
47259;SDS011;32999;52.412;4.890;2022-09-23T07:17:41;14.05;;;8.25;;
47259;SDS011;32999;52.412;4.890;2022-09-23T07:22:43;10.98;;;8.98;;
47259;SDS011;32999;52.412;4.890;2022-09-23T07:27:49;12.38;;;8.52;;
47259;SDS011;32999;52.412;4.890;2022-09-23T07:32:52;17.13;;;9.68;;
47259;SDS011;32999;52.412;4.890;2022-09-23T07:37:53;13.38;;;8.77;;
47259;SDS011;32999;52.412;4.890;2022-09-23T07:42:55;19.15;;;9.20;;
47259;SDS011;32999;52.412;4.890;2022-09-23T07:47:58;17.45;;;9.60;;
47259;SDS011;32999;52.412;4.890;2022-09-23T07:53:01;16.38;;;9.73;;
47259;SDS011;32999;52.412;4.890;2022-09-23T07:58:03;14.23;;;8.80;;
47259;SDS011;32999;52.412;4.890;2022-09-23T08:03:06;13.07;;;8.73;;
47259;SDS011;32999;52.412;4.890;2022-09-23T08:08:08;14.73;;;9.20;;
47259;SDS011;32999;52.412;4.890;2022-09-23T08:13:09;15.77;;;9.82;;
47259;SDS011;32999;52.412;4.890;2022-09-23T08:18:13;15.00;;;9.27;;
47259;SDS011;32999;52.412;4.890;2022-09-23T08:23:14;14.82;;;8.95;;
47259;SDS011;32999;52.412;4.890;2022-09-23T08:28:17;20.15;;;9.55;;
47259;SDS011;32999;52.412;4.890;2022-09-23T08:33:20;15.68;;;8.75;;
47259;SDS011;32999;52.412;4.890;2022-09-23T08:38:23;15.45;;;8.88;;
47259;SDS011;32999;52.412;4.890;2022-09-23T08:43:25;18.52;;;9.15;;
47259;SDS011;32999;52.412;4.890;2022-09-23T08:53:34;14.77;;;8.83;;
47259;SDS011;32999;52.412;4.890;2022-09-23T08:58:39;13.05;;;8.85;;
47259;SDS011;32999;52.412;4.890;2022-09-23T09:03:49;15.80;;;9.18;;
47259;SDS011;32999;52.412;4.890;2022-09-23T09:08:54;13.68;;;10.27;;
47259;SDS011;32999;52.412;4.890;2022-09-23T09:24:15;15.05;;;9.75;;
47259;SDS011;32999;52.412;4.890;2022-09-23T09:29:21;16.20;;;9.60;;
47259;SDS011;32999;52.412;4.890;2022-09-23T09:34:29;16.20;;;9.55;;
47259;SDS011;32999;52.412;4.890;2022-09-23T09:39:40;13.25;;;9.77;;
47259;SDS011;32999;52.412;4.890;2022-09-23T09:44:42;12.05;;;9.80;;
47259;SDS011;32999;52.412;4.890;2022-09-23T09:49:54;15.18;;;10.00;;
47259;SDS011;32999;52.412;4.890;2022-09-23T09:55:14;13.30;;;10.13;;
47259;SDS011;32999;52.412;4.890;2022-09-23T10:05:49;15.98;;;10.00;;
47259;SDS011;32999;52.412;4.890;2022-09-23T10:11:01;17.23;;;9.27;;
47259;SDS011;32999;52.412;4.890;2022-09-23T10:16:04;14.07;;;9.45;;
47259;SDS011;32999;52.412;4.890;2022-09-23T10:21:09;12.75;;;9.48;;
47259;SDS011;32999;52.412;4.890;2022-09-23T10:26:13;15.77;;;9.30;;
47259;SDS011;32999;52.412;4.890;2022-09-23T10:31:20;13.82;;;9.45;;
47259;SDS011;32999;52.412;4.890;2022-09-23T10:36:26;16.58;;;9.50;;
47259;SDS011;32999;52.412;4.890;2022-09-23T10:41:30;12.93;;;8.85;;
47259;SDS011;32999;52.412;4.890;2022-09-23T10:46:56;15.90;;;9.30;;
47259;SDS011;32999;52.412;4.890;2022-09-23T10:52:12;13.00;;;9.35;;
47259;SDS011;32999;52.412;4.890;2022-09-23T10:57:26;11.32;;;8.60;;
47259;SDS011;32999;52.412;4.890;2022-09-23T11:02:49;12.82;;;9.40;;
47259;SDS011;32999;52.412;4.890;2022-09-23T11:08:12;15.68;;;9.43;;
47259;SDS011;32999;52.412;4.890;2022-09-23T11:13:33;15.02;;;8.50;;
47259;SDS011;32999;52.412;4.890;2022-09-23T11:19:01;14.82;;;8.30;;
47259;SDS011;32999;52.412;4.890;2022-09-23T11:24:28;17.47;;;9.17;;
47259;SDS011;32999;52.412;4.890;2022-09-23T11:29:45;13.20;;;8.63;;
47259;SDS011;32999;52.412;4.890;2022-09-23T11:35:00;12.85;;;9.30;;
47259;SDS011;32999;52.412;4.890;2022-09-23T11:40:15;11.07;;;8.23;;
47259;SDS011;32999;52.412;4.890;2022-09-23T11:45:21;13.20;;;9.20;;
47259;SDS011;32999;52.412;4.890;2022-09-23T11:50:28;14.50;;;9.52;;
47259;SDS011;32999;52.412;4.890;2022-09-23T11:55:38;12.98;;;10.00;;
47259;SDS011;32999;52.412;4.890;2022-09-23T12:00:44;18.73;;;9.82;;
47259;SDS011;32999;52.412;4.890;2022-09-23T12:05:56;15.68;;;9.73;;
47259;SDS011;32999;52.412;4.890;2022-09-23T12:11:04;15.18;;;9.50;;
47259;SDS011;32999;52.412;4.890;2022-09-23T12:16:31;14.57;;;8.75;;
47259;SDS011;32999;52.412;4.890;2022-09-23T12:21:48;14.27;;;9.48;;
47259;SDS011;32999;52.412;4.890;2022-09-23T12:27:01;14.05;;;9.27;;
47259;SDS011;32999;52.412;4.890;2022-09-23T12:32:15;12.40;;;8.52;;
47259;SDS011;32999;52.412;4.890;2022-09-23T12:37:21;15.30;;;11.07;;
47259;SDS011;32999;52.412;4.890;2022-09-23T12:42:27;12.38;;;8.75;;
47259;SDS011;32999;52.412;4.890;2022-09-23T12:47:34;10.85;;;7.75;;
47259;SDS011;32999;52.412;4.890;2022-09-23T12:52:39;14.60;;;8.35;;
47259;SDS011;32999;52.412;4.890;2022-09-23T12:57:42;13.00;;;7.95;;
47259;SDS011;32999;52.412;4.890;2022-09-23T13:02:51;10.95;;;8.05;;
47259;SDS011;32999;52.412;4.890;2022-09-23T13:08:15;17.13;;;8.48;;
47259;SDS011;32999;52.412;4.890;2022-09-23T13:13:22;16.58;;;9.45;;
47259;SDS011;32999;52.412;4.890;2022-09-23T13:24:14;13.68;;;9.63;;
47259;SDS011;32999;52.412;4.890;2022-09-23T13:29:20;12.55;;;8.45;;
47259;SDS011;32999;52.412;4.890;2022-09-23T13:34:35;9.88;;;8.48;;
47259;SDS011;32999;52.412;4.890;2022-09-23T13:39:40;16.45;;;8.45;;
47259;SDS011;32999;52.412;4.890;2022-09-23T13:44:43;13.75;;;8.10;;
47259;SDS011;32999;52.412;4.890;2022-09-23T13:49:45;14.52;;;9.00;;
47259;SDS011;32999;52.412;4.890;2022-09-23T13:54:48;13.85;;;7.80;;
47259;SDS011;32999;52.412;4.890;2022-09-23T13:59:51;12.43;;;7.93;;
47259;SDS011;32999;52.412;4.890;2022-09-23T14:04:55;14.77;;;7.80;;
47259;SDS011;32999;52.412;4.890;2022-09-23T14:09:58;14.98;;;8.27;;
47259;SDS011;32999;52.412;4.890;2022-09-23T14:15:01;10.32;;;7.90;;
47259;SDS011;32999;52.412;4.890;2022-09-23T14:20:03;12.33;;;8.27;;
47259;SDS011;32999;52.412;4.890;2022-09-23T14:25:13;13.13;;;7.63;;
47259;SDS011;32999;52.412;4.890;2022-09-23T14:30:18;13.82;;;8.32;;
47259;SDS011;32999;52.412;4.890;2022-09-23T14:35:20;15.38;;;7.97;;
47259;SDS011;32999;52.412;4.890;2022-09-23T14:40:26;17.90;;;12.75;;
47259;SDS011;32999;52.412;4.890;2022-09-23T14:45:32;12.50;;;7.60;;
47259;SDS011;32999;52.412;4.890;2022-09-23T14:50:36;8.90;;;6.68;;
47259;SDS011;32999;52.412;4.890;2022-09-23T14:55:39;10.57;;;7.05;;
47259;SDS011;32999;52.412;4.890;2022-09-23T15:00:51;10.63;;;6.55;;
47259;SDS011;32999;52.412;4.890;2022-09-23T15:05:54;9.70;;;7.40;;
47259;SDS011;32999;52.412;4.890;2022-09-23T15:10:59;11.32;;;9.10;;
47259;SDS011;32999;52.412;4.890;2022-09-23T15:16:05;14.77;;;8.68;;
47259;SDS011;32999;52.412;4.890;2022-09-23T15:21:08;17.25;;;10.98;;
47259;SDS011;32999;52.412;4.890;2022-09-23T15:26:12;16.33;;;9.27;;
47259;SDS011;32999;52.412;4.890;2022-09-23T15:36:50;12.50;;;8.00;;
47259;SDS011;32999;52.412;4.890;2022-09-23T15:41:42;14.40;;;9.02;;
47259;SDS011;32999;52.412;4.890;2022-09-23T15:46:46;13.10;;;9.18;;
47259;SDS011;32999;52.412;4.890;2022-09-23T15:51:50;18.30;;;9.55;;
47259;SDS011;32999;52.412;4.890;2022-09-23T15:56:53;12.60;;;9.93;;
47259;SDS011;32999;52.412;4.890;2022-09-23T16:01:57;11.73;;;9.90;;
47259;SDS011;32999;52.412;4.890;2022-09-23T16:07:02;14.35;;;10.10;;
47259;SDS011;32999;52.412;4.890;2022-09-23T16:12:06;13.77;;;10.23;;
47259;SDS011;32999;52.412;4.890;2022-09-23T16:17:13;18.25;;;9.88;;
47259;SDS011;32999;52.412;4.890;2022-09-23T16:22:14;13.75;;;10.57;;
47259;SDS011;32999;52.412;4.890;2022-09-23T16:27:16;16.55;;;10.98;;
47259;SDS011;32999;52.412;4.890;2022-09-23T16:32:20;14.35;;;9.55;;
47259;SDS011;32999;52.412;4.890;2022-09-23T16:37:23;15.25;;;11.00;;
47259;SDS011;32999;52.412;4.890;2022-09-23T16:42:25;13.40;;;10.10;;
47259;SDS011;32999;52.412;4.890;2022-09-23T16:47:28;15.68;;;9.57;;
47259;SDS011;32999;52.412;4.890;2022-09-23T16:52:30;15.02;;;10.65;;
47259;SDS011;32999;52.412;4.890;2022-09-23T16:57:31;20.23;;;11.45;;
47259;SDS011;32999;52.412;4.890;2022-09-23T17:02:34;15.43;;;12.73;;
47259;SDS011;32999;52.412;4.890;2022-09-23T17:07:54;16.90;;;13.75;;
47259;SDS011;32999;52.412;4.890;2022-09-23T17:12:56;17.20;;;13.55;;
47259;SDS011;32999;52.412;4.890;2022-09-23T17:17:59;12.70;;;11.00;;
47259;SDS011;32999;52.412;4.890;2022-09-23T17:23:01;10.07;;;7.00;;
47259;SDS011;32999;52.412;4.890;2022-09-23T17:28:04;14.18;;;7.82;;
47259;SDS011;32999;52.412;4.890;2022-09-23T17:33:07;7.18;;;5.35;;
47259;SDS011;32999;52.412;4.890;2022-09-23T17:38:09;9.30;;;6.05;;
47259;SDS011;32999;52.412;4.890;2022-09-23T17:43:11;4.38;;;3.70;;
47259;SDS011;32999;52.412;4.890;2022-09-23T17:48:14;5.35;;;4.25;;
47259;SDS011;32999;52.412;4.890;2022-09-23T17:53:19;6.20;;;3.40;;
47259;SDS011;32999;52.412;4.890;2022-09-23T17:58:22;7.22;;;5.30;;
47259;SDS011;32999;52.412;4.890;2022-09-23T18:03:27;7.72;;;4.57;;
47259;SDS011;32999;52.412;4.890;2022-09-23T18:08:29;7.78;;;3.60;;
47259;SDS011;32999;52.412;4.890;2022-09-23T18:13:31;7.15;;;3.80;;
47259;SDS011;32999;52.412;4.890;2022-09-23T18:18:34;11.95;;;3.63;;
47259;SDS011;32999;52.412;4.890;2022-09-23T18:23:37;4.95;;;3.95;;
47259;SDS011;32999;52.412;4.890;2022-09-23T18:28:38;11.07;;;4.22;;
47259;SDS011;32999;52.412;4.890;2022-09-23T18:33:41;6.28;;;4.72;;
47259;SDS011;32999;52.412;4.890;2022-09-23T18:38:43;6.95;;;4.90;;
47259;SDS011;32999;52.412;4.890;2022-09-23T18:43:45;6.05;;;4.57;;
47259;SDS011;32999;52.412;4.890;2022-09-23T18:48:48;7.35;;;5.82;;
47259;SDS011;32999;52.412;4.890;2022-09-23T18:54:09;9.82;;;6.55;;
47259;SDS011;32999;52.412;4.890;2022-09-23T18:59:11;9.73;;;7.15;;
47259;SDS011;32999;52.412;4.890;2022-09-23T19:04:18;9.60;;;7.35;;
47259;SDS011;32999;52.412;4.890;2022-09-23T19:09:20;12.38;;;9.18;;
47259;SDS011;32999;52.412;4.890;2022-09-23T19:14:22;11.82;;;9.80;;
47259;SDS011;32999;52.412;4.890;2022-09-23T19:19:25;13.85;;;9.90;;
47259;SDS011;32999;52.412;4.890;2022-09-23T19:29:29;18.13;;;12.70;;
47259;SDS011;32999;52.412;4.890;2022-09-23T19:34:33;19.52;;;16.20;;
47259;SDS011;32999;52.412;4.890;2022-09-23T19:39:36;28.73;;;21.48;;
47259;SDS011;32999;52.412;4.890;2022-09-23T19:44:39;38.90;;;29.42;;
47259;SDS011;32999;52.412;4.890;2022-09-23T19:49:42;36.72;;;28.58;;
47259;SDS011;32999;52.412;4.890;2022-09-23T19:54:44;46.88;;;32.72;;
47259;SDS011;32999;52.412;4.890;2022-09-23T19:59:47;49.22;;;32.63;;
47259;SDS011;32999;52.412;4.890;2022-09-23T20:04:50;41.58;;;30.35;;
47259;SDS011;32999;52.412;4.890;2022-09-23T20:09:54;43.03;;;28.95;;
47259;SDS011;32999;52.412;4.890;2022-09-23T20:14:57;38.38;;;26.70;;
47259;SDS011;32999;52.412;4.890;2022-09-23T20:20:00;35.22;;;24.42;;
47259;SDS011;32999;52.412;4.890;2022-09-23T20:25:02;30.52;;;21.60;;
47259;SDS011;32999;52.412;4.890;2022-09-23T20:30:06;32.05;;;22.48;;
47259;SDS011;32999;52.412;4.890;2022-09-23T20:35:10;31.27;;;22.10;;
47259;SDS011;32999;52.412;4.890;2022-09-23T20:40:11;32.60;;;20.58;;
47259;SDS011;32999;52.412;4.890;2022-09-23T20:45:13;35.95;;;22.13;;
47259;SDS011;32999;52.412;4.890;2022-09-23T20:50:17;26.38;;;17.67;;
47259;SDS011;32999;52.412;4.890;2022-09-23T20:55:21;17.80;;;13.07;;
47259;SDS011;32999;52.412;4.890;2022-09-23T21:00:23;16.48;;;13.13;;
47259;SDS011;32999;52.412;4.890;2022-09-23T21:05:27;19.65;;;13.02;;
47259;SDS011;32999;52.412;4.890;2022-09-23T21:10:29;19.50;;;15.15;;
47259;SDS011;32999;52.412;4.890;2022-09-23T21:15:33;22.83;;;17.15;;
47259;SDS011;32999;52.412;4.890;2022-09-23T21:20:37;27.13;;;17.67;;
47259;SDS011;32999;52.412;4.890;2022-09-23T21:25:38;23.38;;;17.63;;
47259;SDS011;32999;52.412;4.890;2022-09-23T21:30:43;24.55;;;18.42;;
47259;SDS011;32999;52.412;4.890;2022-09-23T21:35:47;29.25;;;19.60;;
47259;SDS011;32999;52.412;4.890;2022-09-23T21:40:55;26.08;;;18.88;;
47259;SDS011;32999;52.412;4.890;2022-09-23T21:45:59;21.50;;;15.13;;
47259;SDS011;32999;52.412;4.890;2022-09-23T21:51:03;14.13;;;10.93;;
47259;SDS011;32999;52.412;4.890;2022-09-23T21:56:08;15.57;;;10.95;;
47259;SDS011;32999;52.412;4.890;2022-09-23T22:01:11;15.87;;;10.73;;
47259;SDS011;32999;52.412;4.890;2022-09-23T22:06:16;14.02;;;10.57;;
47259;SDS011;32999;52.412;4.890;2022-09-23T22:11:21;15.43;;;12.13;;
47259;SDS011;32999;52.412;4.890;2022-09-23T22:16:41;21.05;;;15.43;;
47259;SDS011;32999;52.412;4.890;2022-09-23T22:21:45;21.33;;;17.38;;
47259;SDS011;32999;52.412;4.890;2022-09-23T22:26:49;28.75;;;18.00;;
47259;SDS011;32999;52.412;4.890;2022-09-23T22:31:51;34.35;;;20.75;;
47259;SDS011;32999;52.412;4.890;2022-09-23T22:43:00;44.70;;;26.27;;
47259;SDS011;32999;52.412;4.890;2022-09-23T22:48:23;49.60;;;29.67;;
47259;SDS011;32999;52.412;4.890;2022-09-23T22:53:28;50.78;;;29.48;;
47259;SDS011;32999;52.412;4.890;2022-09-23T22:58:44;52.08;;;31.05;;
47259;SDS011;32999;52.412;4.890;2022-09-23T23:03:46;67.47;;;34.58;;
47259;SDS011;32999;52.412;4.890;2022-09-23T23:08:50;58.97;;;34.72;;
47259;SDS011;32999;52.412;4.890;2022-09-23T23:13:51;69.80;;;37.33;;
47259;SDS011;32999;52.412;4.890;2022-09-23T23:18:53;70.38;;;38.38;;
47259;SDS011;32999;52.412;4.890;2022-09-23T23:23:58;79.80;;;40.65;;
47259;SDS011;32999;52.412;4.890;2022-09-23T23:29:03;84.95;;;39.65;;
47259;SDS011;32999;52.412;4.890;2022-09-23T23:34:05;83.43;;;40.38;;
47259;SDS011;32999;52.412;4.890;2022-09-23T23:39:11;82.28;;;41.72;;
47259;SDS011;32999;52.412;4.890;2022-09-23T23:44:13;102.45;;;44.97;;
47259;SDS011;32999;52.412;4.890;2022-09-23T23:49:15;89.35;;;42.97;;
47259;SDS011;32999;52.412;4.890;2022-09-23T23:54:18;72.25;;;39.67;;
47259;SDS011;32999;52.412;4.890;2022-09-23T23:59:20;73.75;;;38.50;;
